sensor_id;sensor_type;location;lat;lon;timestamp;P1;durP1;ratioP1;P2;durP2;ratioP2
69381;SDS011;56560;50.692;12.844;2023-03-01T00:01:22;1999.90;;;999.90;;
69381;SDS011;56560;50.692;12.844;2023-03-01T00:03:49;1999.90;;;999.90;;
69381;SDS011;56560;50.692;12.844;2023-03-01T00:06:15;1999.90;;;999.90;;
69381;SDS011;56560;50.692;12.844;2023-03-01T00:08:42;1999.90;;;999.90;;
69381;SDS011;56560;50.692;12.844;2023-03-01T00:11:10;1999.90;;;999.90;;
69381;SDS011;56560;50.692;12.844;2023-03-01T00:13:37;1999.90;;;999.90;;
69381;SDS011;56560;50.692;12.844;2023-03-01T00:16:03;1999.90;;;999.90;;
69381;SDS011;56560;50.692;12.844;2023-03-01T00:18:31;1999.90;;;999.90;;
69381;SDS011;56560;50.692;12.844;2023-03-01T00:20:56;1999.90;;;999.90;;
69381;SDS011;56560;50.692;12.844;2023-03-01T00:23:22;1999.90;;;999.90;;
69381;SDS011;56560;50.692;12.844;2023-03-01T00:25:48;1999.90;;;999.90;;
69381;SDS011;56560;50.692;12.844;2023-03-01T00:28:14;1999.90;;;999.90;;
69381;SDS011;56560;50.692;12.844;2023-03-01T00:30:41;1999.90;;;999.90;;
69381;SDS011;56560;50.692;12.844;2023-03-01T00:33:06;1999.90;;;999.90;;
69381;SDS011;56560;50.692;12.844;2023-03-01T00:35:32;1999.90;;;999.90;;
69381;SDS011;56560;50.692;12.844;2023-03-01T00:37:59;1999.90;;;999.90;;
69381;SDS011;56560;50.692;12.844;2023-03-01T00:40:25;1999.90;;;999.90;;
69381;SDS011;56560;50.692;12.844;2023-03-01T00:42:52;1999.90;;;999.90;;
69381;SDS011;56560;50.692;12.844;2023-03-01T00:45:17;1999.90;;;999.90;;
69381;SDS011;56560;50.692;12.844;2023-03-01T00:47:43;1999.90;;;999.90;;
69381;SDS011;56560;50.692;12.844;2023-03-01T00:50:09;1999.90;;;999.90;;
69381;SDS011;56560;50.692;12.844;2023-03-01T00:52:35;1999.90;;;999.90;;
69381;SDS011;56560;50.692;12.844;2023-03-01T00:55:02;1999.90;;;999.90;;
69381;SDS011;56560;50.692;12.844;2023-03-01T00:57:28;1999.90;;;999.90;;
69381;SDS011;56560;50.692;12.844;2023-03-01T00:59:54;1999.90;;;999.90;;
69381;SDS011;56560;50.692;12.844;2023-03-01T01:02:20;1999.90;;;999.90;;
69381;SDS011;56560;50.692;12.844;2023-03-01T01:04:46;1999.90;;;999.90;;
69381;SDS011;56560;50.692;12.844;2023-03-01T01:07:12;1999.90;;;999.90;;
69381;SDS011;56560;50.692;12.844;2023-03-01T01:09:38;1999.90;;;999.90;;
69381;SDS011;56560;50.692;12.844;2023-03-01T01:12:04;1999.90;;;999.90;;
69381;SDS011;56560;50.692;12.844;2023-03-01T01:14:30;1999.90;;;999.90;;
69381;SDS011;56560;50.692;12.844;2023-03-01T01:16:56;1999.90;;;999.90;;
69381;SDS011;56560;50.692;12.844;2023-03-01T01:19:21;1999.90;;;999.90;;
69381;SDS011;56560;50.692;12.844;2023-03-01T01:21:47;1999.90;;;999.90;;
69381;SDS011;56560;50.692;12.844;2023-03-01T01:24:14;1999.90;;;999.90;;
69381;SDS011;56560;50.692;12.844;2023-03-01T01:26:42;1999.90;;;999.90;;
69381;SDS011;56560;50.692;12.844;2023-03-01T01:29:08;1999.90;;;999.90;;
69381;SDS011;56560;50.692;12.844;2023-03-01T01:31:35;1999.90;;;999.90;;
69381;SDS011;56560;50.692;12.844;2023-03-01T01:34:02;1999.90;;;999.90;;
69381;SDS011;56560;50.692;12.844;2023-03-01T01:36:30;1999.90;;;999.90;;
69381;SDS011;56560;50.692;12.844;2023-03-01T01:38:56;30.10;;;28.10;;
69381;SDS011;56560;50.692;12.844;2023-03-01T01:41:22;24.90;;;23.13;;
69381;SDS011;56560;50.692;12.844;2023-03-01T01:44:08;50.95;;;47.78;;
69381;SDS011;56560;50.692;12.844;2023-03-01T01:46:37;59.15;;;54.28;;
69381;SDS011;56560;50.692;12.844;2023-03-01T01:49:07;1999.90;;;999.90;;
69381;SDS011;56560;50.692;12.844;2023-03-01T01:51:42;1999.90;;;999.90;;
69381;SDS011;56560;50.692;12.844;2023-03-01T01:54:17;1999.90;;;999.90;;
69381;SDS011;56560;50.692;12.844;2023-03-01T01:56:52;1999.90;;;999.90;;
69381;SDS011;56560;50.692;12.844;2023-03-01T01:59:25;1999.90;;;999.90;;
69381;SDS011;56560;50.692;12.844;2023-03-01T02:01:55;1999.90;;;999.90;;
69381;SDS011;56560;50.692;12.844;2023-03-01T02:04:21;1999.90;;;999.90;;
69381;SDS011;56560;50.692;12.844;2023-03-01T02:07:21;1999.90;;;999.90;;
69381;SDS011;56560;50.692;12.844;2023-03-01T02:09:42;1999.90;;;999.90;;
69381;SDS011;56560;50.692;12.844;2023-03-01T02:12:11;1999.90;;;999.90;;
69381;SDS011;56560;50.692;12.844;2023-03-01T02:14:38;1999.90;;;999.90;;
69381;SDS011;56560;50.692;12.844;2023-03-01T02:17:04;1999.90;;;999.90;;
69381;SDS011;56560;50.692;12.844;2023-03-01T02:22:44;1999.90;;;999.90;;
69381;SDS011;56560;50.692;12.844;2023-03-01T02:30:47;1999.90;;;999.90;;
69381;SDS011;56560;50.692;12.844;2023-03-01T02:33:34;1999.90;;;999.90;;
69381;SDS011;56560;50.692;12.844;2023-03-01T02:36:09;1999.90;;;999.90;;
69381;SDS011;56560;50.692;12.844;2023-03-01T02:38:42;7.63;;;6.68;;
69381;SDS011;56560;50.692;12.844;2023-03-01T02:41:08;7.63;;;6.82;;
69381;SDS011;56560;50.692;12.844;2023-03-01T02:43:35;6.28;;;5.30;;
69381;SDS011;56560;50.692;12.844;2023-03-01T02:46:03;7.50;;;6.07;;
69381;SDS011;56560;50.692;12.844;2023-03-01T02:48:41;9.23;;;8.13;;
69381;SDS011;56560;50.692;12.844;2023-03-01T02:51:18;15.77;;;7.38;;
69381;SDS011;56560;50.692;12.844;2023-03-01T02:54:33;16.90;;;8.27;;
69381;SDS011;56560;50.692;12.844;2023-03-01T02:56:53;18.98;;;9.18;;
69381;SDS011;56560;50.692;12.844;2023-03-01T02:59:20;15.43;;;7.10;;
69381;SDS011;56560;50.692;12.844;2023-03-01T03:01:49;17.10;;;7.72;;
69381;SDS011;56560;50.692;12.844;2023-03-01T03:04:15;21.47;;;8.00;;
69381;SDS011;56560;50.692;12.844;2023-03-01T03:06:43;15.80;;;8.05;;
69381;SDS011;56560;50.692;12.844;2023-03-01T03:09:13;18.73;;;9.35;;
69381;SDS011;56560;50.692;12.844;2023-03-01T03:11:40;17.08;;;8.32;;
69381;SDS011;56560;50.692;12.844;2023-03-01T03:14:07;15.47;;;8.00;;
69381;SDS011;56560;50.692;12.844;2023-03-01T03:16:49;17.05;;;7.60;;
69381;SDS011;56560;50.692;12.844;2023-03-01T03:19:16;13.95;;;6.82;;
69381;SDS011;56560;50.692;12.844;2023-03-01T03:21:43;11.85;;;6.45;;
69381;SDS011;56560;50.692;12.844;2023-03-01T03:24:09;17.93;;;8.53;;
69381;SDS011;56560;50.692;12.844;2023-03-01T03:26:34;12.80;;;6.38;;
69381;SDS011;56560;50.692;12.844;2023-03-01T03:29:00;12.37;;;6.33;;
69381;SDS011;56560;50.692;12.844;2023-03-01T03:31:26;17.48;;;8.02;;
69381;SDS011;56560;50.692;12.844;2023-03-01T03:33:52;22.17;;;9.45;;
69381;SDS011;56560;50.692;12.844;2023-03-01T03:36:19;25.50;;;11.80;;
69381;SDS011;56560;50.692;12.844;2023-03-01T03:38:47;25.30;;;11.02;;
69381;SDS011;56560;50.692;12.844;2023-03-01T03:41:13;25.90;;;11.57;;
69381;SDS011;56560;50.692;12.844;2023-03-01T03:43:40;21.83;;;10.70;;
69381;SDS011;56560;50.692;12.844;2023-03-01T03:46:07;15.93;;;8.40;;
69381;SDS011;56560;50.692;12.844;2023-03-01T03:48:35;10.02;;;5.78;;
69381;SDS011;56560;50.692;12.844;2023-03-01T03:51:02;18.10;;;8.85;;
69381;SDS011;56560;50.692;12.844;2023-03-01T03:53:30;17.25;;;8.70;;
69381;SDS011;56560;50.692;12.844;2023-03-01T03:55:56;18.17;;;8.83;;
69381;SDS011;56560;50.692;12.844;2023-03-01T03:58:23;23.35;;;11.07;;
69381;SDS011;56560;50.692;12.844;2023-03-01T04:00:51;21.38;;;10.70;;
69381;SDS011;56560;50.692;12.844;2023-03-01T04:03:18;19.83;;;9.30;;
69381;SDS011;56560;50.692;12.844;2023-03-01T04:05:45;6.88;;;5.07;;
69381;SDS011;56560;50.692;12.844;2023-03-01T04:08:11;15.87;;;8.77;;
69381;SDS011;56560;50.692;12.844;2023-03-01T04:13:09;18.52;;;9.15;;
69381;SDS011;56560;50.692;12.844;2023-03-01T04:15:37;10.60;;;6.78;;
69381;SDS011;56560;50.692;12.844;2023-03-01T04:18:03;14.52;;;7.20;;
69381;SDS011;56560;50.692;12.844;2023-03-01T04:20:30;20.17;;;10.90;;
69381;SDS011;56560;50.692;12.844;2023-03-01T04:23:13;12.00;;;6.85;;
69381;SDS011;56560;50.692;12.844;2023-03-01T04:25:50;14.30;;;7.38;;
69381;SDS011;56560;50.692;12.844;2023-03-01T04:28:21;11.68;;;6.97;;
69381;SDS011;56560;50.692;12.844;2023-03-01T04:30:52;12.30;;;6.30;;
69381;SDS011;56560;50.692;12.844;2023-03-01T04:33:18;11.93;;;7.10;;
69381;SDS011;56560;50.692;12.844;2023-03-01T04:35:44;14.98;;;7.90;;
69381;SDS011;56560;50.692;12.844;2023-03-01T04:38:10;11.73;;;6.90;;
69381;SDS011;56560;50.692;12.844;2023-03-01T04:40:36;17.13;;;8.90;;
69381;SDS011;56560;50.692;12.844;2023-03-01T04:43:02;14.40;;;7.30;;
69381;SDS011;56560;50.692;12.844;2023-03-01T04:45:28;13.02;;;7.38;;
69381;SDS011;56560;50.692;12.844;2023-03-01T04:47:54;17.33;;;9.67;;
69381;SDS011;56560;50.692;12.844;2023-03-01T04:50:20;13.77;;;7.40;;
69381;SDS011;56560;50.692;12.844;2023-03-01T04:52:46;15.45;;;8.40;;
69381;SDS011;56560;50.692;12.844;2023-03-01T04:55:12;13.18;;;7.18;;
69381;SDS011;56560;50.692;12.844;2023-03-01T04:57:39;11.77;;;6.97;;
69381;SDS011;56560;50.692;12.844;2023-03-01T05:00:06;15.32;;;7.88;;
69381;SDS011;56560;50.692;12.844;2023-03-01T05:02:52;10.82;;;6.03;;
69381;SDS011;56560;50.692;12.844;2023-03-01T05:05:24;8.48;;;5.18;;
69381;SDS011;56560;50.692;12.844;2023-03-01T05:07:56;11.45;;;6.57;;
69381;SDS011;56560;50.692;12.844;2023-03-01T05:10:24;8.10;;;6.33;;
69381;SDS011;56560;50.692;12.844;2023-03-01T05:12:51;17.98;;;12.98;;
69381;SDS011;56560;50.692;12.844;2023-03-01T05:15:19;13.40;;;8.02;;
69381;SDS011;56560;50.692;12.844;2023-03-01T05:17:50;17.02;;;9.30;;
69381;SDS011;56560;50.692;12.844;2023-03-01T05:20:16;12.30;;;6.25;;
69381;SDS011;56560;50.692;12.844;2023-03-01T05:22:43;15.30;;;7.80;;
69381;SDS011;56560;50.692;12.844;2023-03-01T05:25:09;17.63;;;8.48;;
69381;SDS011;56560;50.692;12.844;2023-03-01T05:27:35;18.75;;;9.35;;
69381;SDS011;56560;50.692;12.844;2023-03-01T05:30:01;18.95;;;8.57;;
69381;SDS011;56560;50.692;12.844;2023-03-01T05:32:38;17.67;;;8.93;;
69381;SDS011;56560;50.692;12.844;2023-03-01T05:35:05;16.10;;;7.70;;
69381;SDS011;56560;50.692;12.844;2023-03-01T05:37:34;16.30;;;8.43;;
69381;SDS011;56560;50.692;12.844;2023-03-01T05:40:00;13.55;;;7.80;;
69381;SDS011;56560;50.692;12.844;2023-03-01T05:42:26;15.50;;;7.27;;
69381;SDS011;56560;50.692;12.844;2023-03-01T05:44:52;23.33;;;11.90;;
69381;SDS011;56560;50.692;12.844;2023-03-01T05:47:18;19.50;;;14.63;;
69381;SDS011;56560;50.692;12.844;2023-03-01T05:49:43;24.30;;;11.20;;
69381;SDS011;56560;50.692;12.844;2023-03-01T05:52:09;20.60;;;10.87;;
69381;SDS011;56560;50.692;12.844;2023-03-01T05:54:35;16.83;;;11.40;;
69381;SDS011;56560;50.692;12.844;2023-03-01T05:57:00;22.87;;;10.87;;
69381;SDS011;56560;50.692;12.844;2023-03-01T05:59:26;30.53;;;16.47;;
69381;SDS011;56560;50.692;12.844;2023-03-01T06:01:51;19.55;;;10.05;;
69381;SDS011;56560;50.692;12.844;2023-03-01T06:04:18;24.67;;;13.77;;
69381;SDS011;56560;50.692;12.844;2023-03-01T06:06:43;23.17;;;13.60;;
69381;SDS011;56560;50.692;12.844;2023-03-01T06:09:09;24.43;;;13.10;;
69381;SDS011;56560;50.692;12.844;2023-03-01T06:11:35;39.40;;;18.65;;
69381;SDS011;56560;50.692;12.844;2023-03-01T06:14:01;56.05;;;24.45;;
69381;SDS011;56560;50.692;12.844;2023-03-01T06:16:27;97.47;;;39.00;;
69381;SDS011;56560;50.692;12.844;2023-03-01T06:18:53;39.55;;;19.73;;
69381;SDS011;56560;50.692;12.844;2023-03-01T06:21:19;44.53;;;23.17;;
69381;SDS011;56560;50.692;12.844;2023-03-01T06:23:45;26.80;;;15.20;;
69381;SDS011;56560;50.692;12.844;2023-03-01T06:26:10;17.13;;;11.03;;
69381;SDS011;56560;50.692;12.844;2023-03-01T06:28:36;14.57;;;9.57;;
69381;SDS011;56560;50.692;12.844;2023-03-01T06:31:01;19.10;;;11.37;;
69381;SDS011;56560;50.692;12.844;2023-03-01T06:33:27;32.67;;;21.75;;
69381;SDS011;56560;50.692;12.844;2023-03-01T06:35:56;25.10;;;15.43;;
69381;SDS011;56560;50.692;12.844;2023-03-01T06:38:22;9.15;;;6.15;;
69381;SDS011;56560;50.692;12.844;2023-03-01T06:40:52;18.77;;;15.30;;
69381;SDS011;56560;50.692;12.844;2023-03-01T06:43:22;30.60;;;13.43;;
69381;SDS011;56560;50.692;12.844;2023-03-01T06:45:48;30.58;;;14.48;;
69381;SDS011;56560;50.692;12.844;2023-03-01T06:48:14;26.02;;;15.13;;
69381;SDS011;56560;50.692;12.844;2023-03-01T06:50:40;29.90;;;13.70;;
69381;SDS011;56560;50.692;12.844;2023-03-01T06:53:06;23.97;;;19.73;;
69381;SDS011;56560;50.692;12.844;2023-03-01T06:55:31;42.90;;;39.17;;
69381;SDS011;56560;50.692;12.844;2023-03-01T06:57:57;40.38;;;36.03;;
69381;SDS011;56560;50.692;12.844;2023-03-01T07:00:24;45.45;;;41.53;;
69381;SDS011;56560;50.692;12.844;2023-03-01T07:02:51;100.95;;;91.85;;
69381;SDS011;56560;50.692;12.844;2023-03-01T07:05:17;74.37;;;68.33;;
69381;SDS011;56560;50.692;12.844;2023-03-01T07:07:42;94.50;;;86.03;;
69381;SDS011;56560;50.692;12.844;2023-03-01T07:10:09;47.13;;;42.83;;
69381;SDS011;56560;50.692;12.844;2023-03-01T07:12:35;88.78;;;81.65;;
69381;SDS011;56560;50.692;12.844;2023-03-01T07:15:01;41.03;;;35.85;;
69381;SDS011;56560;50.692;12.844;2023-03-01T07:17:29;93.85;;;85.85;;
69381;SDS011;56560;50.692;12.844;2023-03-01T07:19:55;50.53;;;45.72;;
69381;SDS011;56560;50.692;12.844;2023-03-01T07:22:21;19.85;;;11.07;;
69381;SDS011;56560;50.692;12.844;2023-03-01T07:24:47;19.57;;;12.33;;
69381;SDS011;56560;50.692;12.844;2023-03-01T07:27:13;38.80;;;35.10;;
69381;SDS011;56560;50.692;12.844;2023-03-01T07:29:38;116.95;;;108.07;;
69381;SDS011;56560;50.692;12.844;2023-03-01T07:32:05;49.53;;;44.23;;
69381;SDS011;56560;50.692;12.844;2023-03-01T07:34:31;108.50;;;100.18;;
69381;SDS011;56560;50.692;12.844;2023-03-01T07:36:57;130.80;;;121.32;;
69381;SDS011;56560;50.692;12.844;2023-03-01T07:39:23;166.30;;;152.27;;
69381;SDS011;56560;50.692;12.844;2023-03-01T07:41:48;22.02;;;11.82;;
69381;SDS011;56560;50.692;12.844;2023-03-01T07:44:15;32.85;;;28.80;;
69381;SDS011;56560;50.692;12.844;2023-03-01T07:46:42;34.10;;;21.63;;
69381;SDS011;56560;50.692;12.844;2023-03-01T07:49:08;40.22;;;36.05;;
69381;SDS011;56560;50.692;12.844;2023-03-01T07:51:33;163.60;;;145.85;;
69381;SDS011;56560;50.692;12.844;2023-03-01T07:53:59;267.60;;;247.40;;
69381;SDS011;56560;50.692;12.844;2023-03-01T07:56:24;74.03;;;67.23;;
69381;SDS011;56560;50.692;12.844;2023-03-01T07:58:50;35.10;;;29.70;;
69381;SDS011;56560;50.692;12.844;2023-03-01T08:01:16;28.57;;;22.23;;
69381;SDS011;56560;50.692;12.844;2023-03-01T08:03:43;99.68;;;91.47;;
69381;SDS011;56560;50.692;12.844;2023-03-01T08:06:10;149.97;;;138.10;;
69381;SDS011;56560;50.692;12.844;2023-03-01T08:08:37;190.85;;;177.60;;
69381;SDS011;56560;50.692;12.844;2023-03-01T08:11:04;79.77;;;73.67;;
69381;SDS011;56560;50.692;12.844;2023-03-01T08:13:31;1999.90;;;999.90;;
69381;SDS011;56560;50.692;12.844;2023-03-01T08:16:04;1999.90;;;999.90;;
69381;SDS011;56560;50.692;12.844;2023-03-01T08:18:31;1999.90;;;999.90;;
69381;SDS011;56560;50.692;12.844;2023-03-01T08:21:04;1999.90;;;999.90;;
69381;SDS011;56560;50.692;12.844;2023-03-01T08:23:34;1999.90;;;999.90;;
69381;SDS011;56560;50.692;12.844;2023-03-01T08:26:07;1999.90;;;999.90;;
69381;SDS011;56560;50.692;12.844;2023-03-01T08:28:34;1999.90;;;999.90;;
69381;SDS011;56560;50.692;12.844;2023-03-01T08:31:00;1999.90;;;999.90;;
69381;SDS011;56560;50.692;12.844;2023-03-01T08:33:26;1999.90;;;999.90;;
69381;SDS011;56560;50.692;12.844;2023-03-01T08:35:52;1999.90;;;999.90;;
69381;SDS011;56560;50.692;12.844;2023-03-01T08:38:17;1999.90;;;999.90;;
69381;SDS011;56560;50.692;12.844;2023-03-01T08:40:43;29.50;;;27.00;;
69381;SDS011;56560;50.692;12.844;2023-03-01T08:43:09;30.57;;;28.10;;
69381;SDS011;56560;50.692;12.844;2023-03-01T08:45:35;31.73;;;29.30;;
69381;SDS011;56560;50.692;12.844;2023-03-01T08:48:00;30.10;;;27.60;;
69381;SDS011;56560;50.692;12.844;2023-03-01T08:50:26;29.98;;;27.67;;
69381;SDS011;56560;50.692;12.844;2023-03-01T08:52:51;27.90;;;25.70;;
69381;SDS011;56560;50.692;12.844;2023-03-01T08:55:17;26.93;;;24.60;;
69381;SDS011;56560;50.692;12.844;2023-03-01T08:57:43;27.77;;;25.58;;
69381;SDS011;56560;50.692;12.844;2023-03-01T09:00:09;27.20;;;25.07;;
69381;SDS011;56560;50.692;12.844;2023-03-01T09:02:36;32.92;;;30.52;;
69381;SDS011;56560;50.692;12.844;2023-03-01T09:05:02;31.35;;;28.95;;
69381;SDS011;56560;50.692;12.844;2023-03-01T09:07:27;29.50;;;27.30;;
69381;SDS011;56560;50.692;12.844;2023-03-01T09:09:53;29.53;;;27.33;;
69381;SDS011;56560;50.692;12.844;2023-03-01T09:12:20;30.20;;;27.90;;
69381;SDS011;56560;50.692;12.844;2023-03-01T09:14:46;30.05;;;27.65;;
69381;SDS011;56560;50.692;12.844;2023-03-01T09:17:11;30.23;;;27.93;;
69381;SDS011;56560;50.692;12.844;2023-03-01T09:19:37;29.10;;;26.90;;
69381;SDS011;56560;50.692;12.844;2023-03-01T09:22:03;33.37;;;30.97;;
69381;SDS011;56560;50.692;12.844;2023-03-01T09:24:29;30.67;;;28.42;;
69381;SDS011;56560;50.692;12.844;2023-03-01T09:26:55;28.63;;;26.52;;
69381;SDS011;56560;50.692;12.844;2023-03-01T09:29:22;30.27;;;28.07;;
69381;SDS011;56560;50.692;12.844;2023-03-01T09:31:47;30.08;;;27.88;;
69381;SDS011;56560;50.692;12.844;2023-03-01T09:34:13;29.87;;;27.77;;
69381;SDS011;56560;50.692;12.844;2023-03-01T09:36:41;1999.90;;;999.90;;
69381;SDS011;56560;50.692;12.844;2023-03-01T09:39:06;1999.90;;;999.90;;
69381;SDS011;56560;50.692;12.844;2023-03-01T09:41:46;1999.90;;;999.90;;
69381;SDS011;56560;50.692;12.844;2023-03-01T09:44:49;1999.90;;;999.90;;
69381;SDS011;56560;50.692;12.844;2023-03-01T09:49:54;55.50;;;51.72;;
69381;SDS011;56560;50.692;12.844;2023-03-01T09:52:34;54.45;;;50.78;;
69381;SDS011;56560;50.692;12.844;2023-03-01T09:55:09;51.73;;;48.23;;
69381;SDS011;56560;50.692;12.844;2023-03-01T09:57:51;49.25;;;45.95;;
69381;SDS011;56560;50.692;12.844;2023-03-01T10:00:33;53.97;;;50.33;;
69381;SDS011;56560;50.692;12.844;2023-03-01T10:11:41;33.08;;;29.58;;
69381;SDS011;56560;50.692;12.844;2023-03-01T10:14:23;36.83;;;33.30;;
69381;SDS011;56560;50.692;12.844;2023-03-01T10:16:59;27.58;;;24.67;;
69381;SDS011;56560;50.692;12.844;2023-03-01T10:24:57;27.00;;;22.02;;
69381;SDS011;56560;50.692;12.844;2023-03-01T10:32:48;28.92;;;20.42;;
69381;SDS011;56560;50.692;12.844;2023-03-01T10:35:18;27.03;;;21.57;;
69381;SDS011;56560;50.692;12.844;2023-03-01T10:37:56;23.17;;;18.33;;
69381;SDS011;56560;50.692;12.844;2023-03-01T10:40:27;24.35;;;18.42;;
69381;SDS011;56560;50.692;12.844;2023-03-01T10:42:53;21.13;;;16.43;;
69381;SDS011;56560;50.692;12.844;2023-03-01T10:45:35;24.92;;;17.90;;
69381;SDS011;56560;50.692;12.844;2023-03-01T10:50:33;20.13;;;16.10;;
69381;SDS011;56560;50.692;12.844;2023-03-01T10:53:03;23.05;;;16.85;;
69381;SDS011;56560;50.692;12.844;2023-03-01T10:55:39;19.90;;;16.37;;
69381;SDS011;56560;50.692;12.844;2023-03-01T11:00:45;20.55;;;16.52;;
69381;SDS011;56560;50.692;12.844;2023-03-01T11:03:13;19.25;;;15.48;;
69381;SDS011;56560;50.692;12.844;2023-03-01T11:08:42;32.53;;;30.23;;
69381;SDS011;56560;50.692;12.844;2023-03-01T11:16:45;28.00;;;26.00;;
69381;SDS011;56560;50.692;12.844;2023-03-01T11:19:18;26.33;;;24.42;;
69381;SDS011;56560;50.692;12.844;2023-03-01T11:24:21;25.55;;;23.75;;
69381;SDS011;56560;50.692;12.844;2023-03-01T11:26:53;25.42;;;23.63;;
69381;SDS011;56560;50.692;12.844;2023-03-01T11:32:17;23.88;;;22.17;;
69381;SDS011;56560;50.692;12.844;2023-03-01T11:34:48;26.60;;;24.73;;
69381;SDS011;56560;50.692;12.844;2023-03-01T11:37:28;28.80;;;26.80;;
69381;SDS011;56560;50.692;12.844;2023-03-01T11:40:13;23.38;;;21.67;;
69381;SDS011;56560;50.692;12.844;2023-03-01T11:46:29;19.52;;;18.02;;
69381;SDS011;56560;50.692;12.844;2023-03-01T11:48:41;20.60;;;19.10;;
69381;SDS011;56560;50.692;12.844;2023-03-01T11:51:09;19.33;;;17.85;;
69381;SDS011;56560;50.692;12.844;2023-03-01T11:53:57;18.75;;;17.25;;
69381;SDS011;56560;50.692;12.844;2023-03-01T11:56:47;23.55;;;21.80;;
69381;SDS011;56560;50.692;12.844;2023-03-01T12:10:15;39.15;;;36.45;;
69381;SDS011;56560;50.692;12.844;2023-03-01T12:12:58;23.17;;;21.42;;
69381;SDS011;56560;50.692;12.844;2023-03-01T12:15:59;23.92;;;22.13;;
69381;SDS011;56560;50.692;12.844;2023-03-01T12:38:40;27.90;;;18.08;;
69381;SDS011;56560;50.692;12.844;2023-03-01T12:51:59;27.10;;;15.93;;
69381;SDS011;56560;50.692;12.844;2023-03-01T12:54:33;27.88;;;17.63;;
69381;SDS011;56560;50.692;12.844;2023-03-01T12:57:11;27.70;;;17.50;;
69381;SDS011;56560;50.692;12.844;2023-03-01T12:59:50;29.23;;;20.27;;
69381;SDS011;56560;50.692;12.844;2023-03-01T13:17:47;29.37;;;20.97;;
69381;SDS011;56560;50.692;12.844;2023-03-01T13:20:22;26.48;;;18.42;;
69381;SDS011;56560;50.692;12.844;2023-03-01T13:23:00;24.77;;;16.63;;
69381;SDS011;56560;50.692;12.844;2023-03-01T13:25:33;81.05;;;73.40;;
69381;SDS011;56560;50.692;12.844;2023-03-01T13:31:01;14.90;;;11.80;;
69381;SDS011;56560;50.692;12.844;2023-03-01T13:41:16;17.42;;;12.63;;
69381;SDS011;56560;50.692;12.844;2023-03-01T13:44:02;14.55;;;12.57;;
69381;SDS011;56560;50.692;12.844;2023-03-01T13:46:37;14.82;;;13.18;;
69381;SDS011;56560;50.692;12.844;2023-03-01T13:49:03;16.35;;;13.52;;
69381;SDS011;56560;50.692;12.844;2023-03-01T13:51:29;18.95;;;12.88;;
69381;SDS011;56560;50.692;12.844;2023-03-01T13:53:55;14.88;;;11.52;;
69381;SDS011;56560;50.692;12.844;2023-03-01T13:56:26;14.57;;;11.93;;
69381;SDS011;56560;50.692;12.844;2023-03-01T14:01:39;14.90;;;12.35;;
69381;SDS011;56560;50.692;12.844;2023-03-01T14:06:50;23.88;;;21.70;;
69381;SDS011;56560;50.692;12.844;2023-03-01T14:09:24;14.93;;;12.60;;
69381;SDS011;56560;50.692;12.844;2023-03-01T14:19:39;16.48;;;14.00;;
69381;SDS011;56560;50.692;12.844;2023-03-01T14:22:24;16.10;;;13.75;;
69381;SDS011;56560;50.692;12.844;2023-03-01T14:24:59;14.10;;;11.02;;
69381;SDS011;56560;50.692;12.844;2023-03-01T14:27:30;14.98;;;11.60;;
69381;SDS011;56560;50.692;12.844;2023-03-01T14:30:02;15.70;;;13.02;;
69381;SDS011;56560;50.692;12.844;2023-03-01T14:32:35;14.63;;;11.75;;
69381;SDS011;56560;50.692;12.844;2023-03-01T14:35:01;14.93;;;12.38;;
69381;SDS011;56560;50.692;12.844;2023-03-01T14:37:28;15.32;;;12.23;;
69381;SDS011;56560;50.692;12.844;2023-03-01T14:39:56;14.43;;;11.70;;
69381;SDS011;56560;50.692;12.844;2023-03-01T14:42:24;16.60;;;13.85;;
69381;SDS011;56560;50.692;12.844;2023-03-01T14:44:53;14.60;;;11.70;;
69381;SDS011;56560;50.692;12.844;2023-03-01T14:47:33;16.03;;;14.33;;
69381;SDS011;56560;50.692;12.844;2023-03-01T14:50:02;15.30;;;11.80;;
69381;SDS011;56560;50.692;12.844;2023-03-01T14:52:36;15.18;;;13.13;;
69381;SDS011;56560;50.692;12.844;2023-03-01T14:55:05;15.18;;;12.02;;
69381;SDS011;56560;50.692;12.844;2023-03-01T14:57:38;14.13;;;11.15;;
69381;SDS011;56560;50.692;12.844;2023-03-01T15:00:10;13.87;;;11.93;;
69381;SDS011;56560;50.692;12.844;2023-03-01T15:02:44;14.85;;;11.85;;
69381;SDS011;56560;50.692;12.844;2023-03-01T15:05:13;14.65;;;11.80;;
69381;SDS011;56560;50.692;12.844;2023-03-01T15:07:41;14.48;;;11.82;;
69381;SDS011;56560;50.692;12.844;2023-03-01T15:10:24;14.35;;;11.18;;
69381;SDS011;56560;50.692;12.844;2023-03-01T15:12:55;14.07;;;11.60;;
69381;SDS011;56560;50.692;12.844;2023-03-01T15:15:35;15.68;;;12.98;;
69381;SDS011;56560;50.692;12.844;2023-03-01T15:20:45;13.48;;;11.15;;
69381;SDS011;56560;50.692;12.844;2023-03-01T15:23:17;14.18;;;11.80;;
69381;SDS011;56560;50.692;12.844;2023-03-01T15:25:43;14.73;;;12.57;;
69381;SDS011;56560;50.692;12.844;2023-03-01T15:28:12;12.65;;;11.35;;
69381;SDS011;56560;50.692;12.844;2023-03-01T15:30:45;11.55;;;10.45;;
69381;SDS011;56560;50.692;12.844;2023-03-01T15:35:58;12.13;;;10.95;;
69381;SDS011;56560;50.692;12.844;2023-03-01T15:38:29;12.13;;;10.93;;
69381;SDS011;56560;50.692;12.844;2023-03-01T15:41:04;12.07;;;10.88;;
69381;SDS011;56560;50.692;12.844;2023-03-01T15:43:46;11.80;;;10.70;;
69381;SDS011;56560;50.692;12.844;2023-03-01T15:46:15;11.60;;;10.40;;
69381;SDS011;56560;50.692;12.844;2023-03-01T15:48:46;10.88;;;9.77;;
69381;SDS011;56560;50.692;12.844;2023-03-01T15:51:14;11.18;;;10.05;;
69381;SDS011;56560;50.692;12.844;2023-03-01T15:53:41;12.90;;;11.65;;
69381;SDS011;56560;50.692;12.844;2023-03-01T15:56:10;11.65;;;10.45;;
69381;SDS011;56560;50.692;12.844;2023-03-01T15:58:38;11.10;;;10.00;;
69381;SDS011;56560;50.692;12.844;2023-03-01T16:01:07;12.25;;;11.05;;
69381;SDS011;56560;50.692;12.844;2023-03-01T16:03:39;12.02;;;10.82;;
69381;SDS011;56560;50.692;12.844;2023-03-01T16:06:05;12.50;;;11.30;;
69381;SDS011;56560;50.692;12.844;2023-03-01T16:08:31;13.00;;;11.70;;
69381;SDS011;56560;50.692;12.844;2023-03-01T16:10:56;10.63;;;9.53;;
69381;SDS011;56560;50.692;12.844;2023-03-01T16:13:26;13.63;;;12.32;;
69381;SDS011;56560;50.692;12.844;2023-03-01T16:15:55;11.93;;;10.73;;
69381;SDS011;56560;50.692;12.844;2023-03-01T16:18:21;10.95;;;9.65;;
69381;SDS011;56560;50.692;12.844;2023-03-01T16:20:47;11.53;;;10.33;;
69381;SDS011;56560;50.692;12.844;2023-03-01T16:23:14;13.23;;;11.93;;
69381;SDS011;56560;50.692;12.844;2023-03-01T16:25:40;11.88;;;10.68;;
69381;SDS011;56560;50.692;12.844;2023-03-01T16:28:07;13.23;;;11.48;;
69381;SDS011;56560;50.692;12.844;2023-03-01T16:30:38;13.50;;;12.10;;
69381;SDS011;56560;50.692;12.844;2023-03-01T16:33:15;13.25;;;11.95;;
69381;SDS011;56560;50.692;12.844;2023-03-01T16:35:47;11.68;;;10.48;;
69381;SDS011;56560;50.692;12.844;2023-03-01T16:38:12;11.80;;;10.37;;